Main page
METAR-TAF:

METAR-TAF

Airports :

Base Aérea de Alcantarilla

Murcia, Spain

latitude: 37-57N, longitude: 001-14W, elevation: 75 m

Current weather observation

The report was made 20 minutes ago, at 09:30 UTC
Calm wind
Temperature 13°C
Humidity 94%
Pressure 1016 hPa
Visibility 10 km or more
Few clouds at a height of 1600 ft
Scattered clouds at a height of 2100 ft
Broken clouds at a height of 3800 ft

METAR: LERI 060930Z 00000KT 9999 FEW016 SCT021 BKN038 13/12 Q1016 NOSIG

Time: 10:50 (09:50 UTC)

Forecast

The report was made 4 hours and 50 minutes ago, at 05:00 UTC
Forecast valid from 06 at 06 UTC to 07 at 06 UTC
Wind 3 kt from variable directions
Visibility 10 km or more
Scattered clouds at a height of 2000 ft

TAF: LERI 060500Z 0606/0706 VRB03KT 9999 SCT020 TX19/0614Z TN11/0606Z

Weather observations and forecasts of more than 4000 airports (METAR and TAF reports).

The available stations are represented by yellow and red dots on the map.

Hover mouse over dot to see the name of the station.

Then click to see weather observations and forecasts.

To change the map : click on the green buttons with a black cross to zoom in, on the green button with a dash to zoom out, or on the green arrows for adjacent maps.


METAR-TAF: